createdAt,value
2022-08-26T00:02:09.162Z,21.97
2022-08-26T00:04:38.063Z,21.81
2022-08-26T00:07:07.191Z,21.96
2022-08-26T00:09:40.090Z,21.82
2022-08-26T00:12:12.307Z,21.47
2022-08-26T00:14:42.073Z,21.44
2022-08-26T00:17:12.251Z,21.88
2022-08-26T00:19:41.443Z,21.92
2022-08-26T00:22:10.413Z,21.84
2022-08-26T00:24:40.479Z,21.79
2022-08-26T00:27:16.829Z,21.55
2022-08-26T00:29:46.172Z,21.59
2022-08-26T00:32:16.213Z,21.60
2022-08-26T00:34:45.554Z,21.53
2022-08-26T00:37:16.263Z,21.55
2022-08-26T00:39:45.660Z,21.49
2022-08-26T00:42:14.594Z,21.58
2022-08-26T00:44:45.207Z,21.65
2022-08-26T00:47:23.354Z,21.41
2022-08-26T00:49:52.821Z,21.64
2022-08-26T00:52:24.060Z,21.75
2022-08-26T00:54:59.710Z,21.68
2022-08-26T00:57:28.940Z,21.72
2022-08-26T01:00:01.455Z,21.58
2022-08-26T01:02:31.639Z,21.49
2022-08-26T01:05:03.337Z,21.44
2022-08-26T01:07:34.722Z,21.13
2022-08-26T01:10:09.300Z,21.28
2022-08-26T01:12:43.762Z,21.06
2022-08-26T01:15:16.656Z,21.21
2022-08-26T01:17:47.426Z,21.17
2022-08-26T01:20:27.778Z,20.99
2022-08-26T01:23:01.486Z,21.09
2022-08-26T01:25:34.584Z,21.24
2022-08-26T01:28:07.149Z,21.15
2022-08-26T01:30:38.667Z,21.14
2022-08-26T01:33:19.983Z,21.02
2022-08-26T01:35:49.296Z,21.16
2022-08-26T01:38:19.894Z,20.61
2022-08-26T01:40:49.427Z,21.00
2022-08-26T01:43:24.058Z,20.93
2022-08-26T01:45:57.300Z,20.92
2022-08-26T01:48:29.879Z,20.79
2022-08-26T01:50:59.790Z,20.83
2022-08-26T01:53:30.790Z,20.86
2022-08-26T01:56:03.064Z,20.50
2022-08-26T01:58:37.465Z,20.76
2022-08-26T02:01:07.114Z,20.78
2022-08-26T02:03:47.664Z,20.87
2022-08-26T02:06:16.574Z,20.78
2022-08-26T02:08:49.700Z,20.44
2022-08-26T02:11:19.625Z,20.75
2022-08-26T02:13:52.461Z,20.82
2022-08-26T02:16:27.867Z,20.87
2022-08-26T02:18:57.906Z,20.79
2022-08-26T02:21:27.165Z,20.70
2022-08-26T02:23:57.815Z,20.56
2022-08-26T02:26:27.122Z,20.46
2022-08-26T02:29:03.046Z,20.30
2022-08-26T02:31:31.896Z,20.26
2022-08-26T02:34:08.990Z,20.23
2022-08-26T02:36:39.825Z,20.25
2022-08-26T02:39:10.592Z,20.30
2022-08-26T02:41:44.887Z,20.34
2022-08-26T02:44:13.992Z,20.34
2022-08-26T02:46:47.051Z,20.24
2022-08-26T02:49:17.124Z,20.31
2022-08-26T02:51:46.786Z,20.22
2022-08-26T02:54:16.865Z,20.21
2022-08-26T02:56:46.574Z,20.18
2022-08-26T02:59:15.538Z,20.15
2022-08-26T03:01:45.450Z,20.11
2022-08-26T03:04:15.234Z,20.17
2022-08-26T03:06:44.358Z,20.24
2022-08-26T03:09:23.377Z,20.15
2022-08-26T03:11:52.432Z,20.16
2022-08-26T03:14:21.366Z,20.10
2022-08-26T03:16:54.508Z,20.15
2022-08-26T03:19:24.619Z,20.10
2022-08-26T03:21:57.800Z,20.14
2022-08-26T03:24:28.970Z,20.17
2022-08-26T03:26:57.926Z,20.19
2022-08-26T03:29:43.975Z,20.24
2022-08-26T03:32:18.975Z,20.25
2022-08-26T03:34:48.073Z,20.11
2022-08-26T03:37:16.804Z,20.24
2022-08-26T03:39:47.399Z,20.31
2022-08-26T03:42:16.774Z,20.07
2022-08-26T03:44:45.851Z,20.48
2022-08-26T03:47:14.678Z,20.50
2022-08-26T03:49:43.440Z,20.53
2022-08-26T03:52:14.025Z,20.02
2022-08-26T03:54:43.548Z,20.58
2022-08-26T03:57:13.573Z,20.62
2022-08-26T03:59:45.508Z,20.71
2022-08-26T04:02:14.158Z,20.75
2022-08-26T04:04:44.444Z,20.87
2022-08-26T04:07:13.683Z,20.76
2022-08-26T04:09:43.879Z,20.73
2022-08-26T04:12:13.937Z,20.89
2022-08-26T04:14:43.755Z,20.86
2022-08-26T04:17:13.456Z,20.89
2022-08-26T04:19:42.237Z,21.03
2022-08-26T04:22:11.124Z,20.97
2022-08-26T04:24:40.322Z,21.06
2022-08-26T04:27:10.469Z,21.16
2022-08-26T04:29:41.651Z,21.15
2022-08-26T04:32:10.649Z,21.09
2022-08-26T04:34:39.823Z,21.26
2022-08-26T04:37:09.284Z,21.00
2022-08-26T04:39:38.235Z,21.26
2022-08-26T04:42:07.665Z,21.26
2022-08-26T04:44:38.722Z,21.06
2022-08-26T04:47:09.801Z,21.19
2022-08-26T04:49:40.394Z,21.34
2022-08-26T04:52:10.306Z,21.42
2022-08-26T04:54:39.436Z,21.59
2022-08-26T04:57:11.204Z,21.49
2022-08-26T04:59:40.370Z,21.63
2022-08-26T05:02:10.698Z,21.72
2022-08-26T05:04:40.349Z,21.77
2022-08-26T05:07:09.725Z,21.83
2022-08-26T05:09:40.049Z,21.95
2022-08-26T05:12:09.708Z,21.97
2022-08-26T05:14:38.842Z,22.05
2022-08-26T05:17:08.509Z,22.04
2022-08-26T05:19:38.661Z,22.00
2022-08-26T05:22:13.271Z,22.08
2022-08-26T05:24:43.413Z,22.17
2022-08-26T05:27:12.601Z,22.04
2022-08-26T05:29:42.150Z,22.10
2022-08-26T05:32:11.244Z,22.13
2022-08-26T05:34:43.053Z,22.36
2022-08-26T05:37:13.686Z,22.33
2022-08-26T05:39:43.551Z,22.26
2022-08-26T05:42:20.127Z,22.55
2022-08-26T05:44:55.446Z,22.59
2022-08-26T05:47:25.264Z,22.56
2022-08-26T05:49:56.238Z,22.35
2022-08-26T05:52:26.144Z,22.53
2022-08-26T05:54:55.177Z,22.57
2022-08-26T05:57:23.997Z,22.72
2022-08-26T05:59:53.096Z,22.75
2022-08-26T06:02:22.077Z,22.76
2022-08-26T06:04:51.256Z,22.69
2022-08-26T06:07:42.175Z,23.07
2022-08-26T06:10:32.556Z,22.89
2022-08-26T06:13:11.633Z,23.25
2022-08-26T06:15:43.211Z,23.03
2022-08-26T06:18:14.667Z,23.35
2022-08-26T06:20:56.959Z,23.44
2022-08-26T06:23:47.194Z,23.33
2022-08-26T06:26:17.466Z,23.47
2022-08-26T06:28:46.784Z,23.60
2022-08-26T06:31:16.508Z,23.93
2022-08-26T06:33:45.765Z,23.72
2022-08-26T06:36:20.521Z,23.68
2022-08-26T06:38:51.722Z,24.05
2022-08-26T06:41:22.966Z,24.01
2022-08-26T06:43:52.426Z,24.07
2022-08-26T06:46:23.443Z,24.39
2022-08-26T06:48:55.699Z,24.47
2022-08-26T06:51:26.728Z,24.60
2022-08-26T06:53:59.610Z,24.59
2022-08-26T06:56:33.491Z,24.94
2022-08-26T06:59:02.750Z,24.76
2022-08-26T07:01:33.764Z,25.10
2022-08-26T07:04:10.533Z,25.22
2022-08-26T07:06:41.590Z,24.96
2022-08-26T07:09:13.655Z,25.32
2022-08-26T07:11:44.623Z,25.60
2022-08-26T07:14:14.552Z,25.78
2022-08-26T07:16:44.324Z,25.67
2022-08-26T07:19:13.655Z,25.68
2022-08-26T07:21:42.671Z,26.12
2022-08-26T07:24:13.048Z,25.96
2022-08-26T07:26:43.091Z,26.46
2022-08-26T07:29:12.712Z,26.53
2022-08-26T07:31:42.995Z,26.60
2022-08-26T07:34:13.944Z,26.66
2022-08-26T07:36:42.736Z,26.75
2022-08-26T07:39:11.491Z,26.37
2022-08-26T07:41:41.762Z,26.80
2022-08-26T07:44:11.629Z,26.90
2022-08-26T07:46:41.082Z,26.93
2022-08-26T07:49:13.157Z,27.20
2022-08-26T07:51:42.111Z,27.33
2022-08-26T07:54:10.857Z,27.13
2022-08-26T07:56:44.239Z,27.02
2022-08-26T07:59:13.856Z,27.52
2022-08-26T08:01:45.435Z,27.83
2022-08-26T08:04:15.415Z,27.81
2022-08-26T08:06:45.268Z,27.97
2022-08-26T08:09:16.110Z,28.12
2022-08-26T08:11:46.765Z,28.27
2022-08-26T08:14:18.284Z,28.43
2022-08-26T08:16:54.729Z,28.61
2022-08-26T08:19:25.065Z,28.43
2022-08-26T08:22:17.545Z,28.68
2022-08-26T08:24:50.020Z,28.82
2022-08-26T08:27:24.248Z,28.74
2022-08-26T08:29:55.247Z,28.88
2022-08-26T08:32:25.118Z,29.16
2022-08-26T08:34:54.465Z,28.87
2022-08-26T08:37:23.397Z,28.94
2022-08-26T08:39:52.599Z,29.36
2022-08-26T08:42:45.727Z,29.86
2022-08-26T08:45:21.291Z,29.96
2022-08-26T08:47:54.080Z,29.83
2022-08-26T08:50:28.504Z,29.87
2022-08-26T08:53:11.083Z,29.50
2022-08-26T08:56:03.366Z,30.06
2022-08-26T08:58:51.625Z,29.98
2022-08-26T09:01:29.459Z,30.60
2022-08-26T09:04:13.869Z,30.20
2022-08-26T09:06:48.453Z,30.34
2022-08-26T09:09:24.099Z,30.48
2022-08-26T09:11:54.470Z,30.86
2022-08-26T09:14:25.501Z,30.57
2022-08-26T09:17:06.226Z,30.87
2022-08-26T09:19:43.936Z,31.46
2022-08-26T09:22:30.018Z,31.37
2022-08-26T09:24:59.254Z,31.29
2022-08-26T09:27:40.176Z,31.24
2022-08-26T09:30:13.514Z,31.00
2022-08-26T09:32:44.561Z,31.76
2022-08-26T09:35:27.663Z,31.81
2022-08-26T09:37:57.779Z,32.03
2022-08-26T09:40:31.096Z,31.88
2022-08-26T09:43:14.261Z,32.51
2022-08-26T09:45:50.836Z,32.53
2022-08-26T09:48:31.283Z,32.62
2022-08-26T09:51:02.613Z,32.38
2022-08-26T09:53:34.465Z,32.82
2022-08-26T09:56:18.228Z,32.59
2022-08-26T09:58:49.267Z,32.76
2022-08-26T10:01:29.583Z,32.92
2022-08-26T10:04:11.287Z,32.59
2022-08-26T10:06:43.394Z,33.07
2022-08-26T10:09:16.941Z,33.38
2022-08-26T10:11:51.782Z,33.89
2022-08-26T10:14:26.451Z,33.46
2022-08-26T10:17:03.303Z,33.15
2022-08-26T10:19:41.333Z,33.47
2022-08-26T10:22:30.544Z,34.00
2022-08-26T10:25:04.631Z,35.56
2022-08-26T10:27:49.547Z,38.63
2022-08-26T10:30:24.439Z,37.56
2022-08-26T10:32:58.887Z,37.38
2022-08-26T10:35:28.859Z,40.37
2022-08-26T10:38:04.007Z,40.69
2022-08-26T10:40:42.246Z,41.78
2022-08-26T10:43:17.024Z,41.35
2022-08-26T10:45:52.327Z,42.86
2022-08-26T10:48:35.428Z,42.01
2022-08-26T10:51:06.120Z,42.54
2022-08-26T10:53:46.756Z,40.55
2022-08-26T10:56:30.934Z,41.18
2022-08-26T10:59:12.426Z,45.18
2022-08-26T11:01:50.971Z,43.83
2022-08-26T11:04:44.496Z,43.46
2022-08-26T11:07:43.663Z,43.90
2022-08-26T11:10:54.613Z,43.84
2022-08-26T11:14:09.501Z,44.54
2022-08-26T11:16:42.861Z,45.45
2022-08-26T11:19:58.991Z,44.71
2022-08-26T11:22:30.236Z,42.78
2022-08-26T11:25:11.261Z,45.32
2022-08-26T11:27:57.084Z,44.12
2022-08-26T11:30:57.890Z,46.89
2022-08-26T11:33:58.297Z,45.05
2022-08-26T11:36:39.291Z,47.24
2022-08-26T11:39:20.219Z,46.36
2022-08-26T11:41:52.763Z,46.99
2022-08-26T11:44:24.029Z,47.03
2022-08-26T11:46:56.607Z,46.81
2022-08-26T11:49:26.001Z,45.17
2022-08-26T11:52:09.663Z,43.08
2022-08-26T11:54:39.957Z,43.30
2022-08-26T11:57:13.527Z,44.24
2022-08-26T11:59:43.558Z,43.56
2022-08-26T12:02:17.744Z,46.69
2022-08-26T12:04:50.822Z,46.08
2022-08-26T12:07:25.003Z,45.80
2022-08-26T12:09:58.102Z,44.24
2022-08-26T12:12:35.020Z,44.15
2022-08-26T12:15:11.279Z,43.91
2022-08-26T12:17:40.810Z,45.63
2022-08-26T12:20:21.302Z,45.82
2022-08-26T12:22:51.176Z,46.80
2022-08-26T12:25:25.353Z,46.51
2022-08-26T12:27:54.343Z,44.40
2022-08-26T12:30:26.171Z,46.91
2022-08-26T12:33:22.529Z,47.47
2022-08-26T12:35:56.561Z,47.26
2022-08-26T12:38:27.272Z,43.60
2022-08-26T12:40:58.197Z,42.85
2022-08-26T12:43:44.706Z,42.98
2022-08-26T12:46:17.097Z,46.65
2022-08-26T12:48:50.213Z,47.02
2022-08-26T12:51:25.951Z,46.83
2022-08-26T12:53:55.508Z,45.78
2022-08-26T12:56:35.322Z,45.21
2022-08-26T12:59:10.244Z,47.33
2022-08-26T13:01:44.230Z,46.61
2022-08-26T13:04:34.386Z,46.48
2022-08-26T13:07:21.337Z,44.96
2022-08-26T13:09:51.767Z,44.18
2022-08-26T13:12:34.970Z,47.01
2022-08-26T13:15:05.505Z,46.89
2022-08-26T13:17:35.970Z,46.25
2022-08-26T13:20:05.264Z,46.36
2022-08-26T13:22:34.733Z,48.33
2022-08-26T13:25:03.449Z,46.68
2022-08-26T13:27:33.619Z,43.10
2022-08-26T13:30:02.366Z,42.94
2022-08-26T13:32:32.872Z,44.04
2022-08-26T13:35:05.934Z,44.57
2022-08-26T13:37:35.626Z,47.92
2022-08-26T13:40:07.044Z,46.36
2022-08-26T13:42:37.327Z,41.31
2022-08-26T13:45:19.230Z,41.96
2022-08-26T13:47:48.539Z,44.17
2022-08-26T13:50:17.582Z,43.16
2022-08-26T13:52:46.362Z,39.62
2022-08-26T13:55:15.312Z,39.41
2022-08-26T13:57:45.519Z,41.70
2022-08-26T14:00:15.758Z,41.83
2022-08-26T14:02:44.575Z,46.00
2022-08-26T14:05:13.748Z,46.26
2022-08-26T14:07:42.738Z,42.23
2022-08-26T14:10:12.782Z,42.17
2022-08-26T14:12:41.578Z,40.68
2022-08-26T14:15:16.311Z,42.53
2022-08-26T14:17:45.896Z,43.37
2022-08-26T14:20:21.291Z,43.58
2022-08-26T14:23:20.673Z,45.29
2022-08-26T14:25:39.235Z,41.85
2022-08-26T14:28:07.991Z,45.43
2022-08-26T14:30:41.066Z,44.99
2022-08-26T14:33:13.410Z,44.42
2022-08-26T14:35:48.050Z,45.04
2022-08-26T14:38:18.253Z,43.19
2022-08-26T14:40:47.051Z,42.90
2022-08-26T14:43:16.475Z,44.30
2022-08-26T14:45:46.772Z,43.25
2022-08-26T14:48:15.613Z,40.91
2022-08-26T14:50:44.623Z,40.37
2022-08-26T14:53:31.201Z,39.52
2022-08-26T14:56:00.059Z,37.67
2022-08-26T14:58:34.721Z,36.78
2022-08-26T15:01:06.988Z,37.61
2022-08-26T15:03:35.783Z,36.01
2022-08-26T15:06:05.564Z,36.13
2022-08-26T15:08:36.703Z,36.17
2022-08-26T15:11:05.990Z,34.71
2022-08-26T15:13:35.055Z,34.93
2022-08-26T15:16:05.587Z,34.99
2022-08-26T15:18:34.355Z,35.14
2022-08-26T15:21:03.841Z,34.75
2022-08-26T15:23:32.662Z,34.66
2022-08-26T15:26:01.666Z,34.54
2022-08-26T15:28:31.306Z,33.76
2022-08-26T15:31:00.507Z,33.77
2022-08-26T15:33:30.767Z,33.09
2022-08-26T15:36:01.193Z,33.41
2022-08-26T15:38:31.737Z,33.14
2022-08-26T15:41:03.365Z,33.41
2022-08-26T15:43:32.954Z,34.08
2022-08-26T15:46:01.871Z,35.30
2022-08-26T15:48:32.194Z,36.42
2022-08-26T15:51:02.427Z,34.73
2022-08-26T15:53:33.485Z,33.37
2022-08-26T15:56:03.029Z,33.12
2022-08-26T15:58:32.217Z,32.61
2022-08-26T16:01:01.353Z,32.19
2022-08-26T16:03:31.752Z,31.97
2022-08-26T16:06:00.656Z,31.74
2022-08-26T16:08:30.106Z,31.57
2022-08-26T16:11:06.060Z,31.35
2022-08-26T16:13:39.605Z,31.16
2022-08-26T16:16:09.624Z,31.02
2022-08-26T16:18:39.893Z,30.97
2022-08-26T16:21:13.175Z,30.52
2022-08-26T16:23:45.060Z,30.35
2022-08-26T16:26:18.023Z,30.36
2022-08-26T16:28:47.763Z,29.98
2022-08-26T16:31:17.370Z,29.76
2022-08-26T16:33:47.566Z,29.60
2022-08-26T16:36:16.826Z,29.54
2022-08-26T16:38:50.084Z,29.36
2022-08-26T16:41:19.359Z,29.02
2022-08-26T16:43:49.123Z,28.95
2022-08-26T16:46:18.976Z,28.92
2022-08-26T16:48:49.594Z,28.57
2022-08-26T16:51:21.169Z,28.40
2022-08-26T16:53:51.486Z,28.35
2022-08-26T16:56:30.629Z,28.46
2022-08-26T16:59:04.353Z,28.48
2022-08-26T17:01:34.052Z,28.19
2022-08-26T17:04:05.235Z,27.97
2022-08-26T17:06:34.220Z,27.69
2022-08-26T17:09:03.053Z,27.62
2022-08-26T17:11:32.040Z,27.76
2022-08-26T17:14:00.898Z,27.85
2022-08-26T17:16:29.947Z,27.83
2022-08-26T17:18:59.949Z,27.77
2022-08-26T17:21:30.466Z,27.64
2022-08-26T17:23:59.478Z,27.63
2022-08-26T17:26:29.199Z,27.65
2022-08-26T17:28:58.279Z,27.49
2022-08-26T17:31:27.469Z,27.64
2022-08-26T17:33:56.944Z,27.60
2022-08-26T17:36:27.450Z,27.67
2022-08-26T17:38:59.490Z,27.53
2022-08-26T17:41:29.173Z,27.53
2022-08-26T17:43:58.350Z,27.46
2022-08-26T17:46:27.517Z,27.41
2022-08-26T17:48:56.563Z,27.16
2022-08-26T17:51:25.599Z,27.20
2022-08-26T17:53:54.722Z,27.06
2022-08-26T17:56:27.283Z,26.82
2022-08-26T17:59:04.025Z,27.07
2022-08-26T18:01:33.357Z,27.07
2022-08-26T18:04:03.032Z,27.03
2022-08-26T18:06:33.363Z,26.93
2022-08-26T18:09:02.822Z,26.83
2022-08-26T18:11:33.657Z,26.75
2022-08-26T18:14:03.043Z,26.59
2022-08-26T18:16:38.339Z,26.66
2022-08-26T18:19:07.653Z,26.56
2022-08-26T18:21:37.399Z,26.96
2022-08-26T18:24:08.304Z,26.86
2022-08-26T18:26:48.430Z,26.76
2022-08-26T18:29:21.684Z,26.51
2022-08-26T18:31:50.976Z,26.75
2022-08-26T18:34:19.991Z,26.59
2022-08-26T18:36:51.810Z,26.54
2022-08-26T18:39:22.200Z,26.48
2022-08-26T18:41:54.325Z,26.47
2022-08-26T18:44:24.002Z,26.32
2022-08-26T18:46:53.714Z,26.27
2022-08-26T18:49:26.144Z,26.11
2022-08-26T18:51:55.226Z,26.15
2022-08-26T18:54:26.113Z,25.26
2022-08-26T18:56:56.660Z,25.98
2022-08-26T18:59:29.564Z,25.87
2022-08-26T19:02:00.023Z,25.76
2022-08-26T19:04:29.540Z,25.55
2022-08-26T19:06:58.592Z,25.50
2022-08-26T19:09:28.207Z,25.35
2022-08-26T19:11:59.452Z,25.39
2022-08-26T19:14:28.600Z,25.42
2022-08-26T19:16:57.824Z,24.76
2022-08-26T19:19:26.941Z,25.18
2022-08-26T19:21:56.113Z,25.21
2022-08-26T19:24:27.459Z,25.22
2022-08-26T19:27:01.555Z,25.23
2022-08-26T19:29:33.272Z,25.18
2022-08-26T19:32:04.239Z,25.29
2022-08-26T19:34:33.593Z,25.04
2022-08-26T19:37:02.738Z,25.07
2022-08-26T19:39:31.828Z,25.01
2022-08-26T19:42:02.118Z,25.12
2022-08-26T19:44:48.563Z,25.12
2022-08-26T19:47:17.920Z,24.83
2022-08-26T19:49:46.863Z,24.89
2022-08-26T19:52:15.882Z,24.76
2022-08-26T19:54:44.902Z,24.81
2022-08-26T19:57:15.200Z,24.78
2022-08-26T19:59:44.479Z,24.76
2022-08-26T20:02:14.858Z,24.36
2022-08-26T20:04:44.773Z,24.77
2022-08-26T20:07:18.511Z,24.81
2022-08-26T20:09:48.781Z,24.83
2022-08-26T20:12:19.787Z,24.90
2022-08-26T20:14:48.821Z,24.91
2022-08-26T20:17:17.997Z,24.77
2022-08-26T20:20:04.111Z,24.39
2022-08-26T20:22:40.371Z,24.79
2022-08-26T20:25:10.210Z,24.76
2022-08-26T20:27:41.301Z,24.77
2022-08-26T20:30:12.116Z,24.71
2022-08-26T20:32:42.581Z,24.76
2022-08-26T20:35:14.427Z,24.71
2022-08-26T20:37:43.935Z,24.35
2022-08-26T20:40:14.641Z,24.67
2022-08-26T20:42:45.046Z,24.35
2022-08-26T20:45:13.979Z,24.65
2022-08-26T20:47:42.970Z,24.50
2022-08-26T20:50:11.790Z,24.69
2022-08-26T20:52:40.686Z,24.93
2022-08-26T20:55:10.646Z,25.47
2022-08-26T20:57:42.544Z,24.73
2022-08-26T21:00:16.355Z,24.55
2022-08-26T21:02:47.375Z,24.37
2022-08-26T21:05:16.518Z,24.46
2022-08-26T21:07:46.011Z,24.53
2022-08-26T21:10:15.325Z,24.71
2022-08-26T21:12:44.613Z,25.62
2022-08-26T21:15:16.502Z,24.93
2022-08-26T21:17:45.632Z,24.46
2022-08-26T21:20:14.468Z,24.14
2022-08-26T21:22:43.330Z,24.34
2022-08-26T21:25:12.564Z,24.28
2022-08-26T21:27:41.520Z,24.27
2022-08-26T21:30:11.814Z,24.11
2022-08-26T21:32:44.966Z,24.34
2022-08-26T21:35:13.895Z,24.31
2022-08-26T21:37:42.790Z,24.30
2022-08-26T21:40:12.541Z,24.28
2022-08-26T21:42:41.605Z,24.25
2022-08-26T21:45:11.616Z,24.21
2022-08-26T21:47:41.647Z,24.24
2022-08-26T21:50:13.639Z,23.99
2022-08-26T21:52:42.668Z,24.26
2022-08-26T21:55:11.924Z,24.02
2022-08-26T21:57:40.926Z,24.31
2022-08-26T22:00:13.564Z,24.43
2022-08-26T22:02:43.354Z,24.35
2022-08-26T22:05:13.813Z,24.30
2022-08-26T22:07:42.800Z,24.28
2022-08-26T22:10:12.795Z,24.24
2022-08-26T22:12:41.583Z,24.27
2022-08-26T22:15:11.289Z,24.20
2022-08-26T22:17:40.372Z,24.12
2022-08-26T22:20:16.328Z,24.03
2022-08-26T22:22:47.040Z,24.01
2022-08-26T22:25:19.220Z,23.91
2022-08-26T22:27:47.932Z,23.78
2022-08-26T22:30:17.242Z,23.81
2022-08-26T22:32:46.100Z,23.79
2022-08-26T22:35:29.323Z,23.68
2022-08-26T22:38:00.268Z,23.39
2022-08-26T22:40:29.240Z,23.29
2022-08-26T22:43:00.334Z,23.38
2022-08-26T22:45:32.901Z,23.40
2022-08-26T22:48:05.180Z,23.22
2022-08-26T22:50:34.303Z,23.27
2022-08-26T22:53:05.581Z,23.18
2022-08-26T22:55:34.772Z,23.18
2022-08-26T22:58:04.489Z,23.19
2022-08-26T23:00:34.437Z,22.82
2022-08-26T23:03:05.718Z,22.82
2022-08-26T23:05:35.211Z,22.91
2022-08-26T23:08:05.824Z,22.89
2022-08-26T23:10:36.928Z,22.92
2022-08-26T23:13:08.198Z,22.73
2022-08-26T23:15:37.857Z,22.56
2022-08-26T23:18:07.437Z,22.55
2022-08-26T23:20:36.604Z,22.59
2022-08-26T23:23:07.325Z,22.57
2022-08-26T23:25:36.380Z,22.32
2022-08-26T23:28:05.572Z,22.51
2022-08-26T23:30:35.540Z,22.10
2022-08-26T23:33:04.468Z,22.49
2022-08-26T23:35:32.536Z,22.61
2022-08-26T23:38:01.897Z,22.52
2022-08-26T23:40:35.857Z,22.54
2022-08-26T23:43:07.419Z,22.40
2022-08-26T23:45:37.139Z,22.20
2022-08-26T23:48:07.016Z,22.29
2022-08-26T23:50:53.202Z,22.34
2022-08-26T23:53:23.802Z,22.38
2022-08-26T23:55:54.341Z,22.33
2022-08-26T23:58:23.447Z,22.15
